createdAt,value
2022-10-23T00:01:42.567Z,1.00
2022-10-23T00:04:13.651Z,1.00
2022-10-23T00:06:43.190Z,1.50
2022-10-23T00:09:14.215Z,1.30
2022-10-23T00:11:44.811Z,1.00
2022-10-23T00:14:13.109Z,0.88
2022-10-23T00:16:41.190Z,1.20
2022-10-23T00:19:09.368Z,1.30
2022-10-23T00:21:38.764Z,0.70
2022-10-23T00:26:40.693Z,1.10
2022-10-23T00:29:10.594Z,1.02
2022-10-23T00:34:09.212Z,1.20
2022-10-23T00:36:38.907Z,1.05
2022-10-23T00:39:07.572Z,1.20
2022-10-23T00:41:35.885Z,1.27
2022-10-23T00:44:12.434Z,0.90
2022-10-23T00:46:41.297Z,0.98
2022-10-23T00:51:41.804Z,0.88
2022-10-23T00:54:23.322Z,1.20
2022-10-23T00:56:53.642Z,0.80
2022-10-23T00:59:23.750Z,1.25
2022-10-23T01:01:52.420Z,1.10
2022-10-23T01:04:21.333Z,1.40
2022-10-23T01:06:59.504Z,0.90
2022-10-23T01:09:33.121Z,1.02
2022-10-23T01:12:16.290Z,0.90
2022-10-23T01:14:58.376Z,0.93
2022-10-23T01:17:39.636Z,0.85
2022-10-23T01:20:42.324Z,0.77
2022-10-23T01:23:43.469Z,0.85
2022-10-23T01:26:45.798Z,0.93
2022-10-23T01:29:23.084Z,0.90
2022-10-23T01:31:57.738Z,0.70
2022-10-23T01:34:32.814Z,0.68
2022-10-23T01:37:05.160Z,0.75
2022-10-23T01:39:39.065Z,0.88
2022-10-23T01:42:12.518Z,1.17
2022-10-23T01:44:45.819Z,1.00
2022-10-23T01:47:17.796Z,0.55
2022-10-23T01:49:57.807Z,1.17
2022-10-23T01:52:26.477Z,0.77
2022-10-23T01:55:00.347Z,0.70
2022-10-23T01:57:33.959Z,0.90
2022-10-23T02:00:09.006Z,1.00
2022-10-23T02:02:55.228Z,0.70
2022-10-23T02:05:31.484Z,0.80
2022-10-23T02:08:01.872Z,1.02
2022-10-23T02:13:07.336Z,0.90
2022-10-23T02:15:40.664Z,1.02
2022-10-23T02:18:17.798Z,1.05
2022-10-23T02:20:54.210Z,0.70
2022-10-23T02:23:26.838Z,0.90
2022-10-23T02:26:00.403Z,1.08
2022-10-23T02:28:39.606Z,0.93
2022-10-23T02:31:15.249Z,0.90
2022-10-23T02:33:45.830Z,1.20
2022-10-23T02:36:14.778Z,1.00
2022-10-23T02:38:44.508Z,0.90
2022-10-23T02:41:22.681Z,0.80
2022-10-23T02:44:00.698Z,0.88
2022-10-23T02:46:41.597Z,0.68
2022-10-23T02:49:14.827Z,0.70
2022-10-23T02:51:53.269Z,0.88
2022-10-23T02:54:41.959Z,1.33
2022-10-23T02:57:17.500Z,0.80
2022-10-23T03:00:01.588Z,1.25
2022-10-23T03:02:37.063Z,2.45
2022-10-23T03:05:11.287Z,0.90
2022-10-23T03:07:42.185Z,1.00
2022-10-23T03:10:13.162Z,0.80
2022-10-23T03:12:42.225Z,1.02
2022-10-23T03:15:14.374Z,0.75
2022-10-23T03:17:45.416Z,0.55
2022-10-23T03:20:17.078Z,1.20
2022-10-23T03:25:17.051Z,0.70
2022-10-23T03:27:47.002Z,1.42
2022-10-23T03:30:18.505Z,1.25
2022-10-23T03:32:52.383Z,0.60
2022-10-23T03:35:22.148Z,1.00
2022-10-23T03:37:50.674Z,1.10
2022-10-23T03:40:19.129Z,1.25
2022-10-23T03:42:47.410Z,1.33
2022-10-23T03:45:20.111Z,0.93
2022-10-23T03:47:51.938Z,1.00
2022-10-23T03:50:23.614Z,1.20
2022-10-23T03:52:51.990Z,1.15
2022-10-23T03:55:20.619Z,1.27
2022-10-23T03:57:48.913Z,1.00
2022-10-23T04:00:20.679Z,1.05
2022-10-23T04:02:49.423Z,1.15
2022-10-23T04:05:17.974Z,1.08
2022-10-23T04:07:56.561Z,1.30
2022-10-23T04:10:25.070Z,1.15
2022-10-23T04:12:53.428Z,1.10
2022-10-23T04:15:22.325Z,1.15
2022-10-23T04:17:51.299Z,0.80
2022-10-23T04:20:21.977Z,0.73
2022-10-23T04:22:50.512Z,1.15
2022-10-23T04:25:20.414Z,0.80
2022-10-23T04:27:49.435Z,1.13
2022-10-23T04:30:18.895Z,1.00
2022-10-23T04:32:51.727Z,0.80
2022-10-23T04:35:21.768Z,1.40
2022-10-23T04:37:50.498Z,1.93
2022-10-23T04:40:23.940Z,2.67
2022-10-23T04:42:55.321Z,3.20
2022-10-23T04:45:24.303Z,2.87
2022-10-23T04:47:53.800Z,2.78
2022-10-23T04:53:18.268Z,2.22
2022-10-23T04:56:07.609Z,2.00
2022-10-23T04:58:50.672Z,2.60
2022-10-23T05:01:20.095Z,3.25
2022-10-23T05:03:50.130Z,4.63
2022-10-23T05:06:19.260Z,4.25
2022-10-23T05:09:11.090Z,3.35
2022-10-23T05:12:00.885Z,2.63
2022-10-23T05:14:29.489Z,2.25
2022-10-23T05:17:02.310Z,2.58
2022-10-23T05:19:36.857Z,3.45
2022-10-23T05:22:06.481Z,1.92
2022-10-23T05:24:50.745Z,1.33
2022-10-23T05:27:25.489Z,1.40
2022-10-23T05:29:58.891Z,1.05
2022-10-23T05:32:33.802Z,1.15
2022-10-23T05:35:07.977Z,1.55
2022-10-23T05:37:38.850Z,1.50
2022-10-23T05:40:12.938Z,1.45
2022-10-23T05:42:46.539Z,1.27
2022-10-23T05:45:18.692Z,1.35
2022-10-23T05:48:11.398Z,1.25
2022-10-23T05:51:22.437Z,0.90
2022-10-23T05:54:04.379Z,1.40
2022-10-23T05:56:42.067Z,1.45
2022-10-23T05:59:23.125Z,1.30
2022-10-23T06:02:24.427Z,1.30
2022-10-23T06:05:02.853Z,1.25
2022-10-23T06:07:38.181Z,1.17
2022-10-23T06:10:09.899Z,0.70
2022-10-23T06:12:44.503Z,1.23
2022-10-23T06:15:19.471Z,1.20
2022-10-23T06:18:14.364Z,1.70
2022-10-23T06:20:55.302Z,0.90
2022-10-23T06:23:28.898Z,0.95
2022-10-23T06:26:21.294Z,1.10
2022-10-23T06:28:58.606Z,1.10
2022-10-23T06:34:00.650Z,1.17
2022-10-23T06:36:32.314Z,1.20
2022-10-23T06:39:10.229Z,0.90
2022-10-23T06:42:04.981Z,1.10
2022-10-23T06:44:53.766Z,1.30
2022-10-23T06:47:51.015Z,0.77
2022-10-23T06:50:38.741Z,1.05
2022-10-23T06:53:13.916Z,1.08
2022-10-23T06:55:52.940Z,1.48
2022-10-23T06:58:25.868Z,1.00
2022-10-23T07:01:07.604Z,1.08
2022-10-23T07:03:38.932Z,1.13
2022-10-23T07:06:12.282Z,0.98
2022-10-23T07:08:42.110Z,0.93
2022-10-23T07:11:40.236Z,1.10
2022-10-23T07:14:09.979Z,1.30
2022-10-23T07:16:40.351Z,0.93
2022-10-23T07:19:13.643Z,1.20
2022-10-23T07:22:10.828Z,1.40
2022-10-23T07:24:46.517Z,1.70
2022-10-23T07:27:29.101Z,2.08
2022-10-23T07:30:01.371Z,1.95
2022-10-23T07:32:35.159Z,1.65
2022-10-23T07:35:25.539Z,1.52
2022-10-23T07:38:00.573Z,1.27
2022-10-23T07:40:33.045Z,1.30
2022-10-23T07:43:02.464Z,1.35
2022-10-23T07:45:32.031Z,0.93
2022-10-23T07:48:08.857Z,1.48
2022-10-23T07:51:02.082Z,0.70
2022-10-23T07:53:33.939Z,0.98
2022-10-23T07:56:16.001Z,0.85
2022-10-23T07:59:03.680Z,1.02
2022-10-23T08:01:42.583Z,0.98
2022-10-23T08:04:13.842Z,1.05
2022-10-23T08:07:02.234Z,1.20
2022-10-23T08:09:43.156Z,1.20
2022-10-23T08:12:23.031Z,1.00
2022-10-23T08:14:53.642Z,0.82
2022-10-23T08:17:47.059Z,1.00
2022-10-23T08:20:24.216Z,1.00
2022-10-23T08:22:55.680Z,0.95
2022-10-23T08:25:28.551Z,0.75
2022-10-23T08:27:58.044Z,1.10
2022-10-23T08:30:27.042Z,1.33
2022-10-23T08:32:57.131Z,1.02
2022-10-23T08:35:26.124Z,0.93
2022-10-23T08:37:56.151Z,0.98
2022-10-23T08:40:27.521Z,1.10
2022-10-23T08:43:28.259Z,1.23
2022-10-23T08:46:15.382Z,1.17
2022-10-23T08:49:22.283Z,0.90
2022-10-23T08:52:14.738Z,1.02
2022-10-23T08:55:01.470Z,1.33
2022-10-23T08:57:38.679Z,1.88
2022-10-23T09:00:17.743Z,1.10
2022-10-23T09:02:48.681Z,0.95
2022-10-23T09:05:21.201Z,1.08
2022-10-23T09:08:09.703Z,1.13
2022-10-23T09:10:53.771Z,1.35
2022-10-23T09:13:36.019Z,1.58
2022-10-23T09:16:15.952Z,1.98
2022-10-23T09:18:44.818Z,1.90
2022-10-23T09:21:13.751Z,1.73
2022-10-23T09:23:42.292Z,1.77
2022-10-23T09:26:16.719Z,1.67
2022-10-23T09:28:49.168Z,2.15
2022-10-23T09:31:19.216Z,2.10
2022-10-23T09:33:58.421Z,2.13
2022-10-23T09:36:29.288Z,1.60
2022-10-23T09:39:00.049Z,1.90
2022-10-23T09:41:35.151Z,3.05
2022-10-23T09:44:20.223Z,2.97
2022-10-23T09:46:53.527Z,3.15
2022-10-23T09:49:24.903Z,3.38
2022-10-23T09:52:00.831Z,2.53
2022-10-23T09:54:32.087Z,2.72
2022-10-23T09:57:07.357Z,2.78
2022-10-23T09:59:36.014Z,2.50
2022-10-23T10:02:21.675Z,2.03
2022-10-23T10:05:22.613Z,2.20
2022-10-23T10:07:57.855Z,1.77
2022-10-23T10:10:30.284Z,2.45
2022-10-23T10:13:05.400Z,2.58
2022-10-23T10:15:41.023Z,2.22
2022-10-23T10:18:19.420Z,3.05
2022-10-23T10:20:58.962Z,2.20
2022-10-23T10:26:08.321Z,2.25
2022-10-23T10:29:11.770Z,2.67
2022-10-23T10:31:57.601Z,2.10
2022-10-23T10:34:31.311Z,2.45
2022-10-23T10:37:07.354Z,2.75
2022-10-23T10:39:43.914Z,2.50
2022-10-23T10:42:25.607Z,2.53
2022-10-23T10:45:09.969Z,2.08
2022-10-23T10:47:50.509Z,2.55
2022-10-23T10:50:31.020Z,2.03
2022-10-23T10:53:21.961Z,2.45
2022-10-23T10:55:53.494Z,2.47
2022-10-23T10:58:29.139Z,2.85
2022-10-23T11:01:02.621Z,2.17
2022-10-23T11:03:40.273Z,2.50
2022-10-23T11:06:16.236Z,2.25
2022-10-23T11:08:57.397Z,2.13
2022-10-23T11:11:34.076Z,2.17
2022-10-23T11:14:03.665Z,2.35
2022-10-23T11:16:38.625Z,1.98
2022-10-23T11:19:14.439Z,2.33
2022-10-23T11:21:46.959Z,1.70
2022-10-23T11:24:50.781Z,2.28
2022-10-23T11:27:36.241Z,1.63
2022-10-23T11:30:26.355Z,2.20
2022-10-23T11:33:29.643Z,2.03
2022-10-23T11:36:14.022Z,2.00
2022-10-23T11:38:44.114Z,2.08
2022-10-23T11:41:25.360Z,2.05
2022-10-23T11:43:58.253Z,2.03
2022-10-23T11:46:35.299Z,2.78
2022-10-23T11:49:20.104Z,2.30
2022-10-23T11:51:48.442Z,2.17
2022-10-23T11:54:27.189Z,2.10
2022-10-23T11:57:10.080Z,2.30
2022-10-23T11:59:53.897Z,1.98
2022-10-23T12:02:32.663Z,1.40
2022-10-23T12:05:07.468Z,1.58
2022-10-23T12:07:38.594Z,2.15
2022-10-23T12:10:18.639Z,2.22
2022-10-23T12:12:56.422Z,1.80
2022-10-23T12:15:26.605Z,2.53
2022-10-23T12:17:58.558Z,1.80
2022-10-23T12:20:41.751Z,1.77
2022-10-23T12:23:43.173Z,1.95
2022-10-23T12:26:27.573Z,2.08
2022-10-23T12:29:03.096Z,1.33
2022-10-23T12:31:48.056Z,1.15
2022-10-23T12:34:31.495Z,1.48
2022-10-23T12:37:27.631Z,1.20
2022-10-23T12:39:57.098Z,1.30
2022-10-23T12:45:03.266Z,1.27
2022-10-23T12:47:33.026Z,1.17
2022-10-23T12:50:02.204Z,1.20
2022-10-23T12:52:35.958Z,1.20
2022-10-23T12:55:14.030Z,1.48
2022-10-23T12:57:43.245Z,1.20
2022-10-23T13:00:17.248Z,1.25
2022-10-23T13:02:46.030Z,1.23
2022-10-23T13:05:19.376Z,1.00
2022-10-23T13:07:50.310Z,1.20
2022-10-23T13:10:26.011Z,1.20
2022-10-23T13:13:06.144Z,1.90
2022-10-23T13:15:40.412Z,1.40
2022-10-23T13:18:14.063Z,1.65
2022-10-23T13:20:44.320Z,1.10
2022-10-23T13:23:20.242Z,1.38
2022-10-23T13:25:55.866Z,0.80
2022-10-23T13:28:26.565Z,0.98
2022-10-23T13:31:01.740Z,1.10
2022-10-23T13:33:35.523Z,1.30
2022-10-23T13:36:07.161Z,0.93
2022-10-23T13:38:39.524Z,0.75
2022-10-23T13:41:14.931Z,1.15
2022-10-23T13:43:44.144Z,1.48
2022-10-23T13:46:19.723Z,1.00
2022-10-23T13:48:48.802Z,1.30
2022-10-23T13:51:21.002Z,1.45
2022-10-23T13:53:50.981Z,1.20
2022-10-23T13:56:21.901Z,1.15
2022-10-23T13:58:51.239Z,0.88
2022-10-23T14:01:24.351Z,0.77
2022-10-23T14:03:53.794Z,0.88
2022-10-23T14:08:52.584Z,1.40
2022-10-23T14:11:21.505Z,0.80
2022-10-23T14:13:50.903Z,1.60
2022-10-23T14:16:21.238Z,1.10
2022-10-23T14:18:50.014Z,0.93
2022-10-23T14:21:22.715Z,1.10
2022-10-23T14:23:53.836Z,0.98
2022-10-23T14:26:24.802Z,1.15
2022-10-23T14:28:54.552Z,1.10
2022-10-23T14:33:54.328Z,0.70
2022-10-23T14:36:23.813Z,1.23
2022-10-23T14:41:28.318Z,1.00
2022-10-23T14:43:56.670Z,1.00
2022-10-23T14:46:25.950Z,1.17
2022-10-23T14:48:56.521Z,1.15
2022-10-23T14:51:27.709Z,1.17
2022-10-23T14:53:59.650Z,1.00
2022-10-23T14:56:28.211Z,0.88
2022-10-23T14:59:02.866Z,0.73
2022-10-23T15:01:31.865Z,0.90
2022-10-23T15:04:00.414Z,0.90
2022-10-23T15:06:29.222Z,1.20
2022-10-23T15:08:58.847Z,1.00
2022-10-23T15:11:27.505Z,0.93
2022-10-23T15:13:57.065Z,1.05
2022-10-23T15:16:25.612Z,1.00
2022-10-23T15:18:55.415Z,0.90
2022-10-23T15:21:23.943Z,0.90
2022-10-23T15:23:52.957Z,0.90
2022-10-23T15:26:23.769Z,0.93
2022-10-23T15:28:55.353Z,1.23
2022-10-23T15:31:48.179Z,1.00
2022-10-23T15:34:18.713Z,1.45
2022-10-23T15:36:48.068Z,1.05
2022-10-23T15:39:18.712Z,0.85
2022-10-23T15:41:55.983Z,1.10
2022-10-23T15:44:26.693Z,0.90
2022-10-23T15:46:57.049Z,1.13
2022-10-23T15:49:26.237Z,1.13
2022-10-23T15:51:54.692Z,1.15
2022-10-23T15:54:26.039Z,1.33
2022-10-23T15:57:02.553Z,1.08
2022-10-23T15:59:32.730Z,1.33
2022-10-23T16:02:01.024Z,1.30
2022-10-23T16:04:29.807Z,1.08
2022-10-23T16:06:58.044Z,1.00
2022-10-23T16:09:26.546Z,1.35
2022-10-23T16:11:55.010Z,1.15
2022-10-23T16:14:24.913Z,1.13
2022-10-23T16:16:54.072Z,1.00
2022-10-23T16:19:22.313Z,1.33
2022-10-23T16:21:50.459Z,1.30
2022-10-23T16:24:18.607Z,1.63
2022-10-23T16:26:51.770Z,1.50
2022-10-23T16:29:21.270Z,1.95
2022-10-23T16:31:50.966Z,1.38
2022-10-23T16:34:20.058Z,1.70
2022-10-23T16:36:48.867Z,2.17
2022-10-23T16:39:36.145Z,1.88
2022-10-23T16:42:23.581Z,2.35
2022-10-23T16:45:06.090Z,2.20
2022-10-23T16:47:36.106Z,2.75
2022-10-23T16:50:05.321Z,2.00
2022-10-23T16:52:34.697Z,2.33
2022-10-23T16:57:31.105Z,1.83
2022-10-23T16:59:59.700Z,1.80
2022-10-23T17:02:28.398Z,2.05
2022-10-23T17:04:58.273Z,2.10
2022-10-23T17:07:26.904Z,2.17
2022-10-23T17:09:55.756Z,2.08
2022-10-23T17:12:23.854Z,1.80
2022-10-23T17:14:52.512Z,2.20
2022-10-23T17:17:20.940Z,1.67
2022-10-23T17:19:49.646Z,1.58
2022-10-23T17:22:19.556Z,1.45
2022-10-23T17:24:51.500Z,1.15
2022-10-23T17:27:22.624Z,0.93
2022-10-23T17:29:50.784Z,1.27
2022-10-23T17:32:19.102Z,1.35
2022-10-23T17:34:47.973Z,1.90
2022-10-23T17:37:17.490Z,0.73
2022-10-23T17:39:47.098Z,0.77
2022-10-23T17:44:44.454Z,0.77
2022-10-23T17:47:13.688Z,1.10
2022-10-23T17:49:45.414Z,1.73
2022-10-23T17:52:16.565Z,1.10
2022-10-23T17:54:45.698Z,1.38
2022-10-23T17:57:15.324Z,1.30
2022-10-23T17:59:44.438Z,1.17
2022-10-23T18:02:14.238Z,1.60
2022-10-23T18:04:42.710Z,1.30
2022-10-23T18:07:11.096Z,1.10
2022-10-23T18:09:39.393Z,1.15
2022-10-23T18:12:08.009Z,1.23
2022-10-23T18:14:38.459Z,1.42
2022-10-23T18:17:06.806Z,1.67
2022-10-23T18:19:36.499Z,0.93
2022-10-23T18:22:05.233Z,1.20
2022-10-23T18:24:36.329Z,1.25
2022-10-23T18:27:07.063Z,1.58
2022-10-23T18:29:39.490Z,1.35
2022-10-23T18:32:08.408Z,2.53
2022-10-23T18:34:36.780Z,1.67
2022-10-23T18:37:05.081Z,1.27
2022-10-23T18:39:35.360Z,1.60
2022-10-23T18:42:03.948Z,0.80
2022-10-23T18:44:32.631Z,1.37
2022-10-23T18:47:02.502Z,1.15
2022-10-23T18:49:31.381Z,1.02
2022-10-23T18:52:01.792Z,1.05
2022-10-23T18:54:30.161Z,1.27
2022-10-23T18:56:58.580Z,1.63
2022-10-23T18:59:26.925Z,1.30
2022-10-23T19:01:55.358Z,1.63
2022-10-23T19:04:25.840Z,1.10
2022-10-23T19:06:55.477Z,1.13
2022-10-23T19:11:52.722Z,1.10
2022-10-23T19:14:21.845Z,1.10
2022-10-23T19:17:01.534Z,1.15
2022-10-23T19:22:03.363Z,0.90
2022-10-23T19:24:36.687Z,0.98
2022-10-23T19:27:05.691Z,1.33
2022-10-23T19:29:34.912Z,0.75
2022-10-23T19:32:03.315Z,1.23
2022-10-23T19:34:32.918Z,1.15
2022-10-23T19:37:01.109Z,1.55
2022-10-23T19:39:32.543Z,0.93
2022-10-23T19:42:01.439Z,0.85
2022-10-23T19:44:30.312Z,2.10
2022-10-23T19:46:58.990Z,1.13
2022-10-23T19:49:27.318Z,1.43
2022-10-23T19:51:57.890Z,1.35
2022-10-23T19:54:26.373Z,1.23
2022-10-23T19:56:56.193Z,0.90
2022-10-23T19:59:25.074Z,0.88
2022-10-23T20:01:53.585Z,1.10
2022-10-23T20:04:21.931Z,1.33
2022-10-23T20:06:55.326Z,1.23
2022-10-23T20:09:27.347Z,1.40
2022-10-23T20:11:56.778Z,1.05
2022-10-23T20:14:25.247Z,1.25
2022-10-23T20:16:56.076Z,2.40
2022-10-23T20:19:27.508Z,0.95
2022-10-23T20:21:55.986Z,0.95
2022-10-23T20:24:24.490Z,0.90
2022-10-23T20:26:56.279Z,1.80
2022-10-23T20:29:25.787Z,1.50
2022-10-23T20:34:23.227Z,1.15
2022-10-23T20:36:53.299Z,0.90
2022-10-23T20:41:57.002Z,0.82
2022-10-23T20:44:26.571Z,1.17
2022-10-23T20:46:56.187Z,1.40
2022-10-23T20:49:25.343Z,1.33
2022-10-23T20:51:55.764Z,0.70
2022-10-23T20:54:24.863Z,0.93
2022-10-23T20:56:53.721Z,0.85
2022-10-23T20:59:23.719Z,1.00
2022-10-23T21:01:55.350Z,0.90
2022-10-23T21:04:27.704Z,1.05
2022-10-23T21:07:10.395Z,0.80
2022-10-23T21:09:40.574Z,1.10
2022-10-23T21:12:10.468Z,0.93
2022-10-23T21:14:40.084Z,0.82
2022-10-23T21:17:11.018Z,0.80
2022-10-23T21:19:40.498Z,0.80
2022-10-23T21:22:11.633Z,0.68
2022-10-23T21:24:40.362Z,0.98
2022-10-23T21:29:37.834Z,1.08
2022-10-23T21:32:07.572Z,0.77
2022-10-23T21:34:36.290Z,0.80
2022-10-23T21:37:13.067Z,0.90
2022-10-23T21:39:42.638Z,0.85
2022-10-23T21:42:12.677Z,0.93
2022-10-23T21:44:41.796Z,0.60
2022-10-23T21:47:11.474Z,0.85
2022-10-23T21:52:08.248Z,0.75
2022-10-23T21:54:36.826Z,0.65
2022-10-23T21:57:05.482Z,0.65
2022-10-23T21:59:36.106Z,0.80
2022-10-23T22:02:05.594Z,1.02
2022-10-23T22:04:36.558Z,0.60
2022-10-23T22:07:05.635Z,0.70
2022-10-23T22:09:35.617Z,0.57
2022-10-23T22:12:04.062Z,1.02
2022-10-23T22:14:33.123Z,0.47
2022-10-23T22:17:01.836Z,1.60
2022-10-23T22:19:31.220Z,0.50
2022-10-23T22:22:00.823Z,0.60
2022-10-23T22:24:29.005Z,0.88
2022-10-23T22:26:57.783Z,1.00
2022-10-23T22:29:29.280Z,0.83
2022-10-23T22:31:58.393Z,0.88
2022-10-23T22:37:21.442Z,0.80
2022-10-23T22:39:53.762Z,0.80
2022-10-23T22:42:22.195Z,0.85
2022-10-23T22:44:50.242Z,1.10
2022-10-23T22:47:19.733Z,1.20
2022-10-23T22:49:47.883Z,0.70
2022-10-23T22:52:16.384Z,0.70
2022-10-23T22:54:45.853Z,0.70
2022-10-23T22:57:14.078Z,0.68
2022-10-23T22:59:43.111Z,1.33
2022-10-23T23:02:11.408Z,0.70
2022-10-23T23:04:39.985Z,1.13
2022-10-23T23:07:09.069Z,0.57
2022-10-23T23:09:39.879Z,1.40
2022-10-23T23:12:11.013Z,0.95
2022-10-23T23:14:40.154Z,0.77
2022-10-23T23:17:09.908Z,1.38
2022-10-23T23:19:38.400Z,1.05
2022-10-23T23:22:06.865Z,0.85
2022-10-23T23:24:35.396Z,1.67
2022-10-23T23:27:07.733Z,0.80
2022-10-23T23:29:37.232Z,0.73
2022-10-23T23:34:34.660Z,1.25
2022-10-23T23:37:03.501Z,1.00
2022-10-23T23:39:31.677Z,1.13
2022-10-23T23:41:59.817Z,0.50
2022-10-23T23:44:28.299Z,1.00
2022-10-23T23:46:57.955Z,0.70
2022-10-23T23:49:26.123Z,1.33
2022-10-23T23:51:56.266Z,1.83
2022-10-23T23:54:24.368Z,0.95
2022-10-23T23:56:52.944Z,1.58
2022-10-23T23:59:21.694Z,1.23
